sensor_id;sensor_type;location;lat;lon;timestamp;pressure;altitude;pressure_sealevel;temperature;humidity
45050;BME280;61798;48.048;-1.928;2022-09-09T00:00:38;100280.88;;;14.36;87.06
45050;BME280;61798;48.048;-1.928;2022-09-09T00:03:23;100279.38;;;14.40;87.12
45050;BME280;61798;48.048;-1.928;2022-09-09T00:08:02;100270.28;;;14.34;87.40
45050;BME280;61798;48.048;-1.928;2022-09-09T00:12:36;100239.41;;;14.18;87.54
45050;BME280;61798;48.048;-1.928;2022-09-09T00:14:59;100269.78;;;14.44;86.99
45050;BME280;61798;48.048;-1.928;2022-09-09T00:17:11;100266.00;;;14.45;87.28
45050;BME280;61798;48.048;-1.928;2022-09-09T00:19:49;100267.06;;;14.44;87.62
45050;BME280;61798;48.048;-1.928;2022-09-09T00:22:19;100265.09;;;14.52;86.46
45050;BME280;61798;48.048;-1.928;2022-09-09T00:24:38;100249.72;;;14.21;87.54
45050;BME280;61798;48.048;-1.928;2022-09-09T00:26:54;100263.88;;;14.35;87.09
45050;BME280;61798;48.048;-1.928;2022-09-09T00:31:31;100260.81;;;14.32;87.56
45050;BME280;61798;48.048;-1.928;2022-09-09T00:33:39;100270.69;;;14.19;88.14
45050;BME280;61798;48.048;-1.928;2022-09-09T00:35:56;100250.13;;;14.25;87.63
45050;BME280;61798;48.048;-1.928;2022-09-09T00:38:49;100258.94;;;14.32;87.65
45050;BME280;61798;48.048;-1.928;2022-09-09T00:49:36;100257.59;;;14.23;87.70
45050;BME280;61798;48.048;-1.928;2022-09-09T00:54:28;100246.22;;;14.21;87.84
45050;BME280;61798;48.048;-1.928;2022-09-09T00:56:39;100245.69;;;14.31;87.25
45050;BME280;61798;48.048;-1.928;2022-09-09T01:01:21;100236.66;;;14.06;88.35
45050;BME280;61798;48.048;-1.928;2022-09-09T01:03:47;100243.53;;;14.21;87.60
45050;BME280;61798;48.048;-1.928;2022-09-09T01:12:16;100249.28;;;14.24;87.83
45050;BME280;61798;48.048;-1.928;2022-09-09T01:14:40;100244.22;;;14.16;88.23
45050;BME280;61798;48.048;-1.928;2022-09-09T01:16:50;100236.50;;;14.20;87.78
45050;BME280;61798;48.048;-1.928;2022-09-09T01:18:58;100237.84;;;14.10;88.48
45050;BME280;61798;48.048;-1.928;2022-09-09T01:23:53;100239.78;;;14.22;88.39
45050;BME280;61798;48.048;-1.928;2022-09-09T01:26:39;100214.38;;;13.99;88.43
45050;BME280;61798;48.048;-1.928;2022-09-09T01:28:49;100212.78;;;14.10;88.39
45050;BME280;61798;48.048;-1.928;2022-09-09T01:31:00;100200.84;;;13.87;89.00
45050;BME280;61798;48.048;-1.928;2022-09-09T01:33:13;100224.63;;;14.09;88.26
45050;BME280;61798;48.048;-1.928;2022-09-09T01:35:57;100234.38;;;14.22;87.79
45050;BME280;61798;48.048;-1.928;2022-09-09T01:38:07;100227.44;;;14.14;87.66
45050;BME280;61798;48.048;-1.928;2022-09-09T01:40:16;100208.00;;;14.12;87.21
45050;BME280;61798;48.048;-1.928;2022-09-09T01:42:23;100229.44;;;14.19;87.54
45050;BME280;61798;48.048;-1.928;2022-09-09T01:44:31;100205.09;;;13.94;88.08
45050;BME280;61798;48.048;-1.928;2022-09-09T01:46:39;100222.06;;;13.95;88.64
45050;BME280;61798;48.048;-1.928;2022-09-09T01:48:46;100216.69;;;13.95;88.28
45050;BME280;61798;48.048;-1.928;2022-09-09T01:50:53;100206.97;;;13.94;88.28
45050;BME280;61798;48.048;-1.928;2022-09-09T01:53:01;100234.94;;;14.12;87.80
45050;BME280;61798;48.048;-1.928;2022-09-09T01:55:10;100234.63;;;14.01;88.59
45050;BME280;61798;48.048;-1.928;2022-09-09T02:00:08;100237.16;;;14.15;87.49
45050;BME280;61798;48.048;-1.928;2022-09-09T02:02:32;100244.44;;;14.14;87.49
45050;BME280;61798;48.048;-1.928;2022-09-09T02:04:47;100252.66;;;14.20;87.24
45050;BME280;61798;48.048;-1.928;2022-09-09T02:06:56;100249.50;;;14.23;86.89
45050;BME280;61798;48.048;-1.928;2022-09-09T02:09:06;100244.53;;;14.08;87.36
45050;BME280;61798;48.048;-1.928;2022-09-09T02:11:14;100252.66;;;14.20;87.08
45050;BME280;61798;48.048;-1.928;2022-09-09T02:13:22;100253.94;;;14.17;87.33
45050;BME280;61798;48.048;-1.928;2022-09-09T02:15:45;100255.88;;;14.29;86.67
45050;BME280;61798;48.048;-1.928;2022-09-09T02:17:56;100218.16;;;14.10;86.82
45050;BME280;61798;48.048;-1.928;2022-09-09T02:20:08;100236.84;;;14.23;86.47
45050;BME280;61798;48.048;-1.928;2022-09-09T02:22:17;100253.09;;;14.35;86.47
45050;BME280;61798;48.048;-1.928;2022-09-09T02:24:29;100251.06;;;14.31;86.60
45050;BME280;61798;48.048;-1.928;2022-09-09T02:26:40;100246.50;;;14.31;86.54
45050;BME280;61798;48.048;-1.928;2022-09-09T02:28:49;100243.66;;;14.26;86.54
45050;BME280;61798;48.048;-1.928;2022-09-09T02:30:57;100229.34;;;14.25;86.49
45050;BME280;61798;48.048;-1.928;2022-09-09T02:33:07;100236.72;;;14.18;87.06
45050;BME280;61798;48.048;-1.928;2022-09-09T02:35:19;100242.47;;;14.22;86.90
45050;BME280;61798;48.048;-1.928;2022-09-09T02:37:37;100252.34;;;14.28;87.01
45050;BME280;61798;48.048;-1.928;2022-09-09T02:39:44;100223.25;;;14.18;86.72
45050;BME280;61798;48.048;-1.928;2022-09-09T02:41:51;100231.09;;;14.20;86.74
45050;BME280;61798;48.048;-1.928;2022-09-09T02:43:59;100246.81;;;14.23;86.92
45050;BME280;61798;48.048;-1.928;2022-09-09T02:46:30;100244.28;;;14.28;86.68
45050;BME280;61798;48.048;-1.928;2022-09-09T02:49:00;100252.41;;;14.21;87.00
45050;BME280;61798;48.048;-1.928;2022-09-09T02:53:45;100241.16;;;14.12;87.38
45050;BME280;61798;48.048;-1.928;2022-09-09T02:58:09;100235.47;;;14.02;87.15
45050;BME280;61798;48.048;-1.928;2022-09-09T03:00:25;100275.16;;;14.25;87.12
45050;BME280;61798;48.048;-1.928;2022-09-09T03:02:32;100248.63;;;14.10;86.89
45050;BME280;61798;48.048;-1.928;2022-09-09T03:04:40;100243.53;;;14.02;87.03
45050;BME280;61798;48.048;-1.928;2022-09-09T03:06:50;100263.66;;;14.18;86.96
45050;BME280;61798;48.048;-1.928;2022-09-09T03:08:58;100248.25;;;14.06;87.20
45050;BME280;61798;48.048;-1.928;2022-09-09T03:11:07;100244.97;;;14.04;87.42
45050;BME280;61798;48.048;-1.928;2022-09-09T03:13:16;100265.63;;;14.11;87.15
45050;BME280;61798;48.048;-1.928;2022-09-09T03:15:25;100263.97;;;14.10;86.94
45050;BME280;61798;48.048;-1.928;2022-09-09T03:17:36;100277.59;;;14.15;87.12
45050;BME280;61798;48.048;-1.928;2022-09-09T03:19:44;100268.47;;;14.16;87.17
45050;BME280;61798;48.048;-1.928;2022-09-09T03:21:51;100230.53;;;13.80;88.03
45050;BME280;61798;48.048;-1.928;2022-09-09T03:23:58;100254.94;;;14.04;87.81
45050;BME280;61798;48.048;-1.928;2022-09-09T03:26:06;100245.66;;;14.00;87.40
45050;BME280;61798;48.048;-1.928;2022-09-09T03:28:13;100258.16;;;14.13;87.66
45050;BME280;61798;48.048;-1.928;2022-09-09T03:30:25;100270.50;;;14.21;87.43
45050;BME280;61798;48.048;-1.928;2022-09-09T03:32:31;100279.25;;;14.16;87.67
45050;BME280;61798;48.048;-1.928;2022-09-09T03:34:38;100270.13;;;14.17;87.48
45050;BME280;61798;48.048;-1.928;2022-09-09T03:36:49;100275.41;;;14.24;87.18
45050;BME280;61798;48.048;-1.928;2022-09-09T03:38:58;100277.13;;;14.18;87.77
45050;BME280;61798;48.048;-1.928;2022-09-09T03:41:04;100278.41;;;14.15;87.58
45050;BME280;61798;48.048;-1.928;2022-09-09T03:43:14;100281.63;;;14.24;87.34
45050;BME280;61798;48.048;-1.928;2022-09-09T03:45:23;100279.25;;;14.16;87.32
45050;BME280;61798;48.048;-1.928;2022-09-09T03:47:31;100297.19;;;14.22;87.56
45050;BME280;61798;48.048;-1.928;2022-09-09T03:49:38;100295.69;;;14.26;87.55
45050;BME280;61798;48.048;-1.928;2022-09-09T03:51:45;100279.09;;;14.11;87.50
45050;BME280;61798;48.048;-1.928;2022-09-09T03:53:52;100283.19;;;14.13;87.64
45050;BME280;61798;48.048;-1.928;2022-09-09T03:56:02;100286.28;;;14.17;87.78
45050;BME280;61798;48.048;-1.928;2022-09-09T03:58:10;100254.63;;;13.93;87.98
45050;BME280;61798;48.048;-1.928;2022-09-09T04:00:17;100301.06;;;14.26;88.08
45050;BME280;61798;48.048;-1.928;2022-09-09T04:02:24;100285.59;;;14.22;87.60
45050;BME280;61798;48.048;-1.928;2022-09-09T04:04:31;100289.72;;;14.24;87.56
45050;BME280;61798;48.048;-1.928;2022-09-09T04:06:39;100283.34;;;14.19;87.59
45050;BME280;61798;48.048;-1.928;2022-09-09T04:08:45;100286.28;;;14.17;87.70
45050;BME280;61798;48.048;-1.928;2022-09-09T04:10:55;100287.31;;;14.16;88.31
45050;BME280;61798;48.048;-1.928;2022-09-09T04:13:04;100285.81;;;14.20;87.60
45050;BME280;61798;48.048;-1.928;2022-09-09T04:15:12;100293.16;;;14.32;87.32
45050;BME280;61798;48.048;-1.928;2022-09-09T04:17:19;100288.88;;;14.24;87.44
45050;BME280;61798;48.048;-1.928;2022-09-09T04:19:26;100301.97;;;14.39;86.98
45050;BME280;61798;48.048;-1.928;2022-09-09T04:21:33;100282.81;;;14.29;87.31
45050;BME280;61798;48.048;-1.928;2022-09-09T04:23:40;100280.72;;;14.31;87.36
45050;BME280;61798;48.048;-1.928;2022-09-09T04:25:52;100290.75;;;14.23;88.01
45050;BME280;61798;48.048;-1.928;2022-09-09T04:28:00;100292.41;;;14.24;87.35
45050;BME280;61798;48.048;-1.928;2022-09-09T04:30:08;100296.53;;;14.27;87.58
45050;BME280;61798;48.048;-1.928;2022-09-09T04:32:15;100286.94;;;14.31;87.35
45050;BME280;61798;48.048;-1.928;2022-09-09T04:34:22;100282.69;;;14.23;87.31
45050;BME280;61798;48.048;-1.928;2022-09-09T04:36:31;100297.56;;;14.26;87.46
45050;BME280;61798;48.048;-1.928;2022-09-09T04:38:39;100312.59;;;14.34;87.56
45050;BME280;61798;48.048;-1.928;2022-09-09T04:40:50;100310.09;;;14.20;88.16
45050;BME280;61798;48.048;-1.928;2022-09-09T04:42:59;100296.16;;;14.23;87.77
45050;BME280;61798;48.048;-1.928;2022-09-09T04:45:07;100254.56;;;14.00;87.22
45050;BME280;61798;48.048;-1.928;2022-09-09T04:47:17;100298.22;;;14.21;87.92
45050;BME280;61798;48.048;-1.928;2022-09-09T04:49:24;100278.72;;;14.07;88.09
45050;BME280;61798;48.048;-1.928;2022-09-09T04:51:32;100297.75;;;14.12;88.16
45050;BME280;61798;48.048;-1.928;2022-09-09T04:53:39;100295.16;;;14.17;88.10
45050;BME280;61798;48.048;-1.928;2022-09-09T04:55:46;100295.16;;;14.17;88.09
45050;BME280;61798;48.048;-1.928;2022-09-09T04:57:53;100287.00;;;14.05;88.16
45050;BME280;61798;48.048;-1.928;2022-09-09T05:00:01;100292.41;;;14.05;88.14
45050;BME280;61798;48.048;-1.928;2022-09-09T05:02:07;100297.50;;;14.14;88.19
45050;BME280;61798;48.048;-1.928;2022-09-09T05:04:14;100300.66;;;14.11;88.10
45050;BME280;61798;48.048;-1.928;2022-09-09T05:06:22;100303.94;;;14.13;87.89
45050;BME280;61798;48.048;-1.928;2022-09-09T05:08:30;100295.50;;;14.09;87.72
45050;BME280;61798;48.048;-1.928;2022-09-09T05:10:38;100312.03;;;14.13;87.68
45050;BME280;61798;48.048;-1.928;2022-09-09T05:12:52;100310.88;;;14.02;88.34
45050;BME280;61798;48.048;-1.928;2022-09-09T05:15:00;100296.31;;;13.91;88.21
45050;BME280;61798;48.048;-1.928;2022-09-09T05:17:06;100291.81;;;13.84;88.74
45050;BME280;61798;48.048;-1.928;2022-09-09T05:19:12;100299.06;;;13.84;89.19
45050;BME280;61798;48.048;-1.928;2022-09-09T05:21:20;100303.63;;;13.83;88.93
45050;BME280;61798;48.048;-1.928;2022-09-09T05:23:26;100271.44;;;13.70;88.71
45050;BME280;61798;48.048;-1.928;2022-09-09T05:25:34;100283.00;;;13.77;88.41
45050;BME280;61798;48.048;-1.928;2022-09-09T05:27:40;100307.97;;;14.03;88.19
45050;BME280;61798;48.048;-1.928;2022-09-09T05:29:47;100302.69;;;13.97;88.05
45050;BME280;61798;48.048;-1.928;2022-09-09T05:31:54;100293.59;;;13.91;87.72
45050;BME280;61798;48.048;-1.928;2022-09-09T05:34:00;100299.63;;;13.93;88.05
45050;BME280;61798;48.048;-1.928;2022-09-09T05:36:08;100319.13;;;14.07;87.66
45050;BME280;61798;48.048;-1.928;2022-09-09T05:38:18;100326.63;;;14.05;87.37
45050;BME280;61798;48.048;-1.928;2022-09-09T05:40:33;100309.63;;;14.04;86.96
45050;BME280;61798;48.048;-1.928;2022-09-09T05:42:41;100327.88;;;14.02;87.61
45050;BME280;61798;48.048;-1.928;2022-09-09T05:44:51;100308.91;;;13.97;87.34
45050;BME280;61798;48.048;-1.928;2022-09-09T05:47:01;100334.00;;;14.10;87.31
45050;BME280;61798;48.048;-1.928;2022-09-09T05:49:23;100316.81;;;13.92;87.43
45050;BME280;61798;48.048;-1.928;2022-09-09T05:51:30;100329.63;;;13.97;87.47
45050;BME280;61798;48.048;-1.928;2022-09-09T05:53:36;100314.78;;;13.87;87.26
45050;BME280;61798;48.048;-1.928;2022-09-09T05:55:46;100325.28;;;13.95;87.47
45050;BME280;61798;48.048;-1.928;2022-09-09T05:57:57;100301.97;;;13.82;87.64
45050;BME280;61798;48.048;-1.928;2022-09-09T06:00:03;100317.63;;;13.92;87.58
45050;BME280;61798;48.048;-1.928;2022-09-09T06:02:13;100307.66;;;13.74;87.89
45050;BME280;61798;48.048;-1.928;2022-09-09T06:04:21;100327.72;;;13.78;88.26
45050;BME280;61798;48.048;-1.928;2022-09-09T06:06:35;100327.88;;;14.02;87.67
45050;BME280;61798;48.048;-1.928;2022-09-09T06:08:44;100311.72;;;13.83;87.90
45050;BME280;61798;48.048;-1.928;2022-09-09T06:10:52;100330.13;;;13.87;88.17
45050;BME280;61798;48.048;-1.928;2022-09-09T06:12:59;100327.97;;;13.95;87.86
45050;BME280;61798;48.048;-1.928;2022-09-09T06:15:07;100314.78;;;13.87;87.76
45050;BME280;61798;48.048;-1.928;2022-09-09T06:17:16;100332.97;;;13.92;88.05
45050;BME280;61798;48.048;-1.928;2022-09-09T06:19:23;100329.06;;;13.88;88.12
45050;BME280;61798;48.048;-1.928;2022-09-09T06:21:36;100331.69;;;13.94;87.88
45050;BME280;61798;48.048;-1.928;2022-09-09T06:23:53;100346.75;;;14.02;88.32
45050;BME280;61798;48.048;-1.928;2022-09-09T06:26:14;100347.78;;;14.01;88.12
45050;BME280;61798;48.048;-1.928;2022-09-09T06:28:26;100349.22;;;14.04;87.66
45050;BME280;61798;48.048;-1.928;2022-09-09T06:30:34;100342.84;;;13.98;87.84
45050;BME280;61798;48.048;-1.928;2022-09-09T06:32:42;100351.53;;;14.00;88.33
45050;BME280;61798;48.048;-1.928;2022-09-09T06:34:52;100345.53;;;13.98;88.04
45050;BME280;61798;48.048;-1.928;2022-09-09T06:37:08;100342.19;;;14.03;87.82
45050;BME280;61798;48.048;-1.928;2022-09-09T06:39:18;100356.69;;;14.02;88.24
45050;BME280;61798;48.048;-1.928;2022-09-09T06:41:29;100333.56;;;13.94;87.92
45050;BME280;61798;48.048;-1.928;2022-09-09T06:43:47;100353.94;;;14.09;87.87
45050;BME280;61798;48.048;-1.928;2022-09-09T06:46:12;100372.06;;;14.20;87.79
45050;BME280;61798;48.048;-1.928;2022-09-09T06:48:29;100377.00;;;14.23;87.74
45050;BME280;61798;48.048;-1.928;2022-09-09T06:50:44;100367.41;;;14.27;87.33
45050;BME280;61798;48.048;-1.928;2022-09-09T06:52:57;100361.00;;;14.29;86.92
45050;BME280;61798;48.048;-1.928;2022-09-09T06:55:19;100380.44;;;14.49;86.54
45050;BME280;61798;48.048;-1.928;2022-09-09T06:57:37;100371.28;;;14.51;86.81
45050;BME280;61798;48.048;-1.928;2022-09-09T07:00:02;100386.72;;;14.62;86.04
45050;BME280;61798;48.048;-1.928;2022-09-09T07:02:23;100392.00;;;14.69;86.38
45050;BME280;61798;48.048;-1.928;2022-09-09T07:04:43;100391.06;;;14.63;86.51
45050;BME280;61798;48.048;-1.928;2022-09-09T07:06:53;100394.81;;;14.62;86.50
45050;BME280;61798;48.048;-1.928;2022-09-09T07:09:02;100387.31;;;14.64;86.16
45050;BME280;61798;48.048;-1.928;2022-09-09T07:11:13;100391.63;;;14.84;86.60
45050;BME280;61798;48.048;-1.928;2022-09-09T07:13:33;100396.75;;;14.93;85.74
45050;BME280;61798;48.048;-1.928;2022-09-09T07:15:44;100377.91;;;14.86;85.57
45050;BME280;61798;48.048;-1.928;2022-09-09T07:17:51;100390.88;;;14.96;85.91
45050;BME280;61798;48.048;-1.928;2022-09-09T07:20:02;100383.25;;;14.93;85.14
45050;BME280;61798;48.048;-1.928;2022-09-09T07:22:09;100399.56;;;14.98;85.04
45050;BME280;61798;48.048;-1.928;2022-09-09T07:24:16;100373.06;;;14.76;84.92
45050;BME280;61798;48.048;-1.928;2022-09-09T07:26:24;100401.06;;;14.94;84.98
45050;BME280;61798;48.048;-1.928;2022-09-09T07:28:30;100382.94;;;14.82;84.92
45050;BME280;61798;48.048;-1.928;2022-09-09T07:30:37;100416.72;;;15.04;84.73
45050;BME280;61798;48.048;-1.928;2022-09-09T07:32:43;100427.88;;;15.07;84.73
45050;BME280;61798;48.048;-1.928;2022-09-09T07:34:49;100421.88;;;15.05;84.17
45050;BME280;61798;48.048;-1.928;2022-09-09T07:36:56;100415.28;;;15.01;83.90
45050;BME280;61798;48.048;-1.928;2022-09-09T07:39:06;100429.09;;;15.11;83.95
45050;BME280;61798;48.048;-1.928;2022-09-09T07:41:17;100387.66;;;14.87;83.46
45050;BME280;61798;48.048;-1.928;2022-09-09T07:43:26;100422.63;;;15.13;83.06
45050;BME280;61798;48.048;-1.928;2022-09-09T07:45:33;100418.66;;;15.15;82.59
45050;BME280;61798;48.048;-1.928;2022-09-09T07:47:41;100440.75;;;15.24;82.77
45050;BME280;61798;48.048;-1.928;2022-09-09T07:49:49;100433.00;;;15.28;82.58
45050;BME280;61798;48.048;-1.928;2022-09-09T07:51:56;100429.13;;;15.24;82.15
45050;BME280;61798;48.048;-1.928;2022-09-09T07:54:06;100443.69;;;15.35;82.36
45050;BME280;61798;48.048;-1.928;2022-09-09T07:56:17;100426.31;;;15.30;81.63
45050;BME280;61798;48.048;-1.928;2022-09-09T07:58:25;100441.16;;;15.40;81.11
45050;BME280;61798;48.048;-1.928;2022-09-09T08:00:32;100428.78;;;15.32;81.71
45050;BME280;61798;48.048;-1.928;2022-09-09T08:02:39;100430.34;;;15.40;80.92
45050;BME280;61798;48.048;-1.928;2022-09-09T08:04:45;100425.88;;;15.46;80.68
45050;BME280;61798;48.048;-1.928;2022-09-09T08:06:57;100439.56;;;15.63;80.23
45050;BME280;61798;48.048;-1.928;2022-09-09T08:09:04;100447.19;;;15.78;79.90
45050;BME280;61798;48.048;-1.928;2022-09-09T08:11:13;100448.63;;;15.93;79.75
45050;BME280;61798;48.048;-1.928;2022-09-09T08:13:22;100438.88;;;15.80;79.35
45050;BME280;61798;48.048;-1.928;2022-09-09T08:15:30;100445.09;;;15.80;79.96
45050;BME280;61798;48.048;-1.928;2022-09-09T08:17:38;100438.63;;;15.81;79.49
45050;BME280;61798;48.048;-1.928;2022-09-09T08:19:46;100430.44;;;15.88;78.97
45050;BME280;61798;48.048;-1.928;2022-09-09T08:21:53;100430.53;;;15.81;79.33
45050;BME280;61798;48.048;-1.928;2022-09-09T08:24:01;100456.03;;;15.98;79.35
45050;BME280;61798;48.048;-1.928;2022-09-09T08:26:19;100439.34;;;16.01;78.45
45050;BME280;61798;48.048;-1.928;2022-09-09T08:28:30;100450.44;;;16.11;77.53
45050;BME280;61798;48.048;-1.928;2022-09-09T08:30:37;100434.56;;;16.15;77.29
45050;BME280;61798;48.048;-1.928;2022-09-09T08:32:45;100453.97;;;16.36;77.40
45050;BME280;61798;48.048;-1.928;2022-09-09T08:34:51;100458.88;;;16.51;76.36
45050;BME280;61798;48.048;-1.928;2022-09-09T08:36:59;100446.41;;;16.50;76.37
45050;BME280;61798;48.048;-1.928;2022-09-09T08:39:06;100450.50;;;16.53;76.44
45050;BME280;61798;48.048;-1.928;2022-09-09T08:43:48;100468.03;;;16.50;76.25
45050;BME280;61798;48.048;-1.928;2022-09-09T08:47:03;100475.44;;;16.55;76.96
45050;BME280;61798;48.048;-1.928;2022-09-09T08:49:24;100473.41;;;16.74;76.48
45050;BME280;61798;48.048;-1.928;2022-09-09T08:51:56;100477.69;;;16.99;76.12
45050;BME280;61798;48.048;-1.928;2022-09-09T08:54:04;100468.75;;;16.99;75.85
45050;BME280;61798;48.048;-1.928;2022-09-09T08:56:15;100459.84;;;16.86;75.89
45050;BME280;61798;48.048;-1.928;2022-09-09T08:58:31;100468.78;;;16.87;75.77
45050;BME280;61798;48.048;-1.928;2022-09-09T09:06:09;100496.19;;;16.90;75.33
45050;BME280;61798;48.048;-1.928;2022-09-09T09:11:14;100474.25;;;17.04;74.71
45050;BME280;61798;48.048;-1.928;2022-09-09T09:13:45;100494.63;;;17.36;74.39
45050;BME280;61798;48.048;-1.928;2022-09-09T09:16:18;100492.59;;;17.14;74.29
45050;BME280;61798;48.048;-1.928;2022-09-09T09:18:29;100506.34;;;17.12;74.24
45050;BME280;61798;48.048;-1.928;2022-09-09T09:23:32;100490.94;;;17.13;74.49
45050;BME280;61798;48.048;-1.928;2022-09-09T09:25:45;100492.69;;;17.19;74.58
45050;BME280;61798;48.048;-1.928;2022-09-09T09:28:12;100495.78;;;17.11;74.37
45050;BME280;61798;48.048;-1.928;2022-09-09T09:30:29;100495.78;;;17.11;74.15
45050;BME280;61798;48.048;-1.928;2022-09-09T09:32:39;100506.44;;;17.30;73.97
45050;BME280;61798;48.048;-1.928;2022-09-09T09:35:09;100496.94;;;17.15;73.78
45050;BME280;61798;48.048;-1.928;2022-09-09T09:37:30;100519.41;;;17.28;74.53
45050;BME280;61798;48.048;-1.928;2022-09-09T09:39:43;100516.28;;;17.07;75.21
45050;BME280;61798;48.048;-1.928;2022-09-09T09:41:51;100518.31;;;16.99;76.94
45050;BME280;61798;48.048;-1.928;2022-09-09T09:43:58;100513.91;;;17.22;76.38
45050;BME280;61798;48.048;-1.928;2022-09-09T09:46:24;100514.47;;;17.25;75.22
45050;BME280;61798;48.048;-1.928;2022-09-09T09:48:36;100514.81;;;17.58;74.26
45050;BME280;61798;48.048;-1.928;2022-09-09T09:51:05;100510.97;;;17.71;74.29
45050;BME280;61798;48.048;-1.928;2022-09-09T09:53:34;100516.69;;;17.57;74.28
45050;BME280;61798;48.048;-1.928;2022-09-09T09:56:17;100519.88;;;17.83;73.66
45050;BME280;61798;48.048;-1.928;2022-09-09T09:58:52;100515.25;;;17.84;73.20
45050;BME280;61798;48.048;-1.928;2022-09-09T10:01:25;100515.66;;;17.93;72.62
45050;BME280;61798;48.048;-1.928;2022-09-09T10:03:57;100520.25;;;17.75;73.26
45050;BME280;61798;48.048;-1.928;2022-09-09T10:06:06;100511.78;;;17.89;72.80
45050;BME280;61798;48.048;-1.928;2022-09-09T10:08:16;100522.44;;;17.61;73.21
45050;BME280;61798;48.048;-1.928;2022-09-09T10:10:31;100542.41;;;17.72;73.29
45050;BME280;61798;48.048;-1.928;2022-09-09T10:20:56;100542.72;;;17.58;73.90
45050;BME280;61798;48.048;-1.928;2022-09-09T10:25:50;100545.34;;;17.53;74.23
45050;BME280;61798;48.048;-1.928;2022-09-09T10:32:59;100555.88;;;17.67;73.43
45050;BME280;61798;48.048;-1.928;2022-09-09T10:35:50;100562.78;;;17.74;72.52
45050;BME280;61798;48.048;-1.928;2022-09-09T10:38:27;100556.31;;;17.93;72.49
45050;BME280;61798;48.048;-1.928;2022-09-09T10:41:00;100555.00;;;17.95;72.76
45050;BME280;61798;48.048;-1.928;2022-09-09T10:48:33;100538.09;;;18.40;71.67
45050;BME280;61798;48.048;-1.928;2022-09-09T10:50:58;100548.69;;;18.59;70.63
45050;BME280;61798;48.048;-1.928;2022-09-09T10:56:04;100535.53;;;18.90;70.60
45050;BME280;61798;48.048;-1.928;2022-09-09T10:58:22;100542.41;;;18.98;69.85
45050;BME280;61798;48.048;-1.928;2022-09-09T11:00:47;100535.38;;;18.80;69.41
45050;BME280;61798;48.048;-1.928;2022-09-09T11:03:00;100545.56;;;18.90;69.19
45050;BME280;61798;48.048;-1.928;2022-09-09T11:05:20;100539.50;;;19.05;70.18
45050;BME280;61798;48.048;-1.928;2022-09-09T11:07:48;100531.47;;;19.16;68.84
45050;BME280;61798;48.048;-1.928;2022-09-09T11:10:03;100532.88;;;19.41;67.66
45050;BME280;61798;48.048;-1.928;2022-09-09T11:12:18;100534.91;;;19.06;69.04
45050;BME280;61798;48.048;-1.928;2022-09-09T11:14:45;100544.94;;;19.28;69.42
45050;BME280;61798;48.048;-1.928;2022-09-09T11:17:03;100538.59;;;18.99;69.11
45050;BME280;61798;48.048;-1.928;2022-09-09T11:21:35;100530.69;;;18.35;69.82
45050;BME280;61798;48.048;-1.928;2022-09-09T11:23:48;100555.19;;;18.58;69.12
45050;BME280;61798;48.048;-1.928;2022-09-09T11:26:00;100556.75;;;18.54;69.34
45050;BME280;61798;48.048;-1.928;2022-09-09T11:31:08;100547.56;;;18.55;69.70
45050;BME280;61798;48.048;-1.928;2022-09-09T11:33:42;100564.38;;;18.05;72.58
45050;BME280;61798;48.048;-1.928;2022-09-09T11:36:23;100563.41;;;17.94;73.77
45050;BME280;61798;48.048;-1.928;2022-09-09T11:38:47;100564.28;;;17.53;76.88
45050;BME280;61798;48.048;-1.928;2022-09-09T11:41:02;100563.50;;;17.40;79.51
45050;BME280;61798;48.048;-1.928;2022-09-09T11:43:15;100569.41;;;17.37;78.89
45050;BME280;61798;48.048;-1.928;2022-09-09T11:45:26;100575.81;;;17.31;79.76
45050;BME280;61798;48.048;-1.928;2022-09-09T11:47:34;100565.81;;;17.19;81.49
45050;BME280;61798;48.048;-1.928;2022-09-09T11:49:43;100566.03;;;17.30;79.70
45050;BME280;61798;48.048;-1.928;2022-09-09T11:51:52;100545.34;;;17.23;80.40
45050;BME280;61798;48.048;-1.928;2022-09-09T11:54:01;100563.25;;;17.54;80.72
45050;BME280;61798;48.048;-1.928;2022-09-09T11:56:11;100545.03;;;17.67;80.27
45050;BME280;61798;48.048;-1.928;2022-09-09T11:58:22;100535.09;;;17.55;81.21
45050;BME280;61798;48.048;-1.928;2022-09-09T12:00:48;100550.84;;;18.39;83.75
45050;BME280;61798;48.048;-1.928;2022-09-09T12:02:56;100533.22;;;18.07;79.13
45050;BME280;61798;48.048;-1.928;2022-09-09T12:05:08;100538.69;;;18.42;78.82
45050;BME280;61798;48.048;-1.928;2022-09-09T12:10:52;100545.41;;;18.39;79.12
45050;BME280;61798;48.048;-1.928;2022-09-09T12:12:46;100537.28;;;18.39;78.00
45050;BME280;61798;48.048;-1.928;2022-09-09T12:17:27;100541.13;;;18.84;77.65
45050;BME280;61798;48.048;-1.928;2022-09-09T12:19:35;100538.28;;;18.73;76.01
45050;BME280;61798;48.048;-1.928;2022-09-09T12:21:45;100546.63;;;18.89;75.90
45050;BME280;61798;48.048;-1.928;2022-09-09T12:24:37;100543.97;;;18.71;75.77
45050;BME280;61798;48.048;-1.928;2022-09-09T12:29:20;100537.59;;;18.43;73.89
45050;BME280;61798;48.048;-1.928;2022-09-09T12:33:47;100542.34;;;18.70;72.18
45050;BME280;61798;48.048;-1.928;2022-09-09T12:35:56;100527.19;;;18.75;70.43
45050;BME280;61798;48.048;-1.928;2022-09-09T12:38:05;100545.38;;;18.97;69.02
45050;BME280;61798;48.048;-1.928;2022-09-09T12:40:31;100549.78;;;19.03;68.33
45050;BME280;61798;48.048;-1.928;2022-09-09T12:42:41;100540.09;;;19.30;67.22
45050;BME280;61798;48.048;-1.928;2022-09-09T12:44:55;100542.34;;;19.38;66.62
45050;BME280;61798;48.048;-1.928;2022-09-09T12:47:03;100537.31;;;19.25;66.66
45050;BME280;61798;48.048;-1.928;2022-09-09T12:49:29;100551.50;;;19.54;66.48
45050;BME280;61798;48.048;-1.928;2022-09-09T12:51:43;100549.25;;;19.79;65.53
45050;BME280;61798;48.048;-1.928;2022-09-09T12:53:49;100539.44;;;19.73;65.26
45050;BME280;61798;48.048;-1.928;2022-09-09T12:56:00;100555.38;;;20.25;65.09
45050;BME280;61798;48.048;-1.928;2022-09-09T12:58:13;100550.47;;;20.27;64.16